Latest Coastal Weather Observations for Wynyard

IDT60701

Issued at 2:21 am EST Friday 27 May 2016 (issued every 10 minutes, with the page automatically refreshed every 10 minutes)

About coastal observations | Map of coastal stations | Coastal observations for TAS | Marine services | Other Formats
Station Details ID: 091107 Name: WYNYARD AIRPORT Lat: -41.00 Lon: 145.73 Height: 12.0 m
Data from the previous 72 hours. | See also: Recent months at Wynyard
Date/Time
EST
Temp

°C
Wind Pressure Rain
since 9am
mm
Weather Cloud Vis
km
Sea
Height
m
Swell
Dir
 
Speed
knots
Gust
knots
hPa Trend Height
m
Period
s
Dir
27/02:00am 5.3 NW 5 6 1003.4 - 0.0 - - 10 - - - -
27/01:30am 5.3 W 8 9 1003.1 - 0.0 - - 10 - - - -
27/01:00am 6.0 WNW 7 9 1003.0 - 0.0 - - 10 - - - -
27/12:30am 6.9 WNW 5 6 1003.1 - 0.0 - - 10 - - - -
27/12:00am 7.4 W 5 7 1002.9 - 0.0 - Cloudy 10 - - - -
 
Date/Time
EST
Temp

°C
Wind Pressure Rain
since 9am
mm
Weather Cloud Vis
km
Sea
Height
m
Swell
Dir
 
Speed
knots
Gust
knots
hPa Trend Height
m
Period
s
Dir
26/11:30pm 7.4 WSW 7 8 1003.1 - 0.0 - - 10 - - - -
26/11:00pm 8.4 WSW 8 11 1003.0 - 0.0 - - 10 - - - -
26/10:30pm 7.6 SW 7 9 1002.9 - 0.0 - - 10 - - - -
26/10:00pm 6.6 W 6 8 1003.2 - 0.0 - - 10 - - - -
26/09:30pm 7.2 WSW 5 7 1003.1 - 0.0 - - 10 - - - -
26/09:00pm 7.5 WSW 6 8 1002.8 - 0.0 - Cloudy 10 - - - -
26/08:30pm 9.0 SW 10 14 1002.5 - 0.0 - - 10 - - - -
26/08:00pm 8.9 SW 10 15 1002.3 - 0.0 - - 10 - - - -
26/07:30pm 8.5 WSW 8 10 1002.4 - 0.0 - - 10 - - - -
26/07:00pm 9.0 WSW 9 12 1002.2 - 0.0 - - 10 - - - -
26/06:30pm 9.3 SW 11 16 1001.9 - 0.0 - - 10 - - - -
26/06:00pm 9.5 SW 9 13 1001.6 - 0.0 - Mostly cloudy 10 - - - -
26/05:30pm 9.1 SW 6 8 1001.4 - 0.0 - - 10 - - - -
26/05:00pm 9.9 SW 8 9 1001.1 - 0.0 - Partly cloudy 10 - - - -
26/04:30pm 11.0 SW 9 13 1000.8 - 0.0 - Partly cloudy 10 - - - -
26/04:00pm 11.5 SW 8 11 1000.5 - 0.0 - Partly cloudy 10 - - - -
26/03:30pm 12.3 SW 9 13 1000.2 - 0.0 - - 10 - - - -
26/03:00pm 12.6 SSW 10 15 1000.2 - 0.0 - Partly cloudy 10 - - - -
26/02:30pm 12.9 SSW 10 15 999.8 - 0.0 - - 10 - - - -
26/02:00pm 12.6 SSW 9 13 999.7 - 0.0 - - 10 - - - -
26/01:30pm 12.1 SW 8 11 999.9 - 0.0 - Partly cloudy 10 - - - -
26/01:00pm 11.7 S 9 14 999.7 - 0.0 - Partly cloudy 10 - - - -
26/12:30pm 11.2 SSW 7 11 1000.2 - 0.0 - Partly cloudy 10 - - - -
26/12:00pm 11.2 SSW 7 10 1000.7 - 0.0 - Cloudy 10 - - - -
26/11:30am 11.1 SW 7 9 1001.0 - 0.0 - Cloudy 10 - - - -
26/11:00am 10.6 W 9 11 1001.3 - 0.0 - Cloudy 10 - - - -
26/10:30am 10.3 WNW 7 9 1001.6 - 0.0 - Cloudy 10 - - - -
26/10:00am 10.2 WNW 4 5 1001.6 - 0.0 - Cloudy 10 - - - -
26/09:30am 10.0 W 4 5 1001.6 - 0.0 - Cloudy 10 - - - -
26/09:00am 9.7 WNW 7 9 1001.6 - 8.0 - Cloudy 10 - - - -
26/08:30am 9.6 NW 7 8 1001.8 - 8.0 - - 10 - - - -
26/08:00am 9.4 WNW 9 10 1001.7 - 8.0 - - 10 - - - -
26/07:30am 9.4 W 7 9 1001.5 - 8.0 - Partly cloudy 10 - - - -
26/07:00am 9.7 NW 6 7 1001.5 - 8.0 - - 10 - - - -
26/06:30am 9.8 NW 5 6 1001.3 - 8.0 - Partly cloudy 10 - - - -
26/06:00am 9.8 WNW 4 5 1001.5 - 8.0 - Cloudy 10 - - - -
26/05:30am 10.4 WNW 6 8 1001.5 - 8.0 - Partly cloudy 10 - - - -
26/05:00am 9.8 WSW 4 5 1001.3 - 8.0 - Partly cloudy 10 - - - -
26/04:30am 10.7 WNW 4 6 1001.7 - 8.0 - Partly cloudy 10 - - - -
26/04:00am 11.4 W 8 11 1001.4 - 8.0 - Cloudy 10 - - - -
26/03:30am 11.6 SW 6 9 1001.5 - 8.0 - Cloudy 10 - - - -
26/03:00am 10.7 SW 5 5 1001.7 - 8.0 - Cloudy 10 - - - -
26/02:30am 11.2 WSW 5 6 1001.8 - 8.0 - Partly cloudy 10 - - - -
26/02:27am 11.1 W 5 6 1001.9 - 8.0 - Partly cloudy 10 - - - -
26/02:00am 12.5 WNW 5 9 1001.9 - 8.0 - Partly cloudy 10 - - - -
26/01:47am 13.0 NW 11 15 1002.3 - 8.0 - Partly cloudy 10 - - - -
26/01:30am 12.9 NW 13 20 1002.4 - 8.0 - Partly cloudy 3 - - - -
26/01:00am 12.8 NW 11 16 1002.8 - 7.4 - Partly cloudy 2 - - - -
26/12:30am 12.7 NW 10 13 1003.1 - 7.2 - Partly cloudy 2 - - - -
26/12:00am 12.8 NW 9 14 1003.6 - 6.2 Rain Cloudy 4 - - - -
 
Date/Time
EST
Temp

°C
Wind Pressure Rain
since 9am
mm
Weather Cloud Vis
km
Sea
Height
m
Swell
Dir
 
Speed
knots
Gust
knots
hPa Trend Height
m
Period
s
Dir
25/11:51pm 12.9 NNW 10 12 1003.7 - 5.8 - Partly cloudy 5 - - - -
25/11:47pm 12.9 NNW 9 12 1003.8 - 5.4 - Partly cloudy 6 - - - -
25/11:30pm 12.6 NNW 8 12 1004.0 - 5.2 - Partly cloudy 4 - - - -
25/11:12pm 12.5 NNW 8 10 1004.3 - 4.4 - Partly cloudy 5 - - - -
25/11:05pm 12.4 NW 9 14 1004.5 - 4.2 - Partly cloudy 4 - - - -
25/11:00pm 12.4 NW 10 15 1004.5 - 4.0 - Partly cloudy 3 - - - -
25/10:30pm 12.4 NW 9 13 1004.9 - 2.6 - Partly cloudy 4 - - - -
25/10:00pm 12.2 NW 12 18 1005.2 - 2.0 - Partly cloudy 3 - - - -
25/09:30pm 12.4 NW 10 17 1005.5 - 1.4 - Partly cloudy 3 - - - -
25/09:08pm 12.7 NW 13 18 1005.7 - 0.4 - Partly cloudy 3 - - - -
25/09:02pm 12.9 NNW 14 19 1005.7 - 0.0 - Partly cloudy 5 - - - -
25/09:00pm 13.0 NNW 14 19 1005.7 - 0.0 - Cloudy 7 - - - -
25/08:30pm 13.3 NNW 15 22 1005.6 - 0.0 - Cloudy 10 - - - -
25/08:05pm 13.3 NNW 14 23 1005.7 - 0.0 - Cloudy 10 - - - -
25/08:00pm 13.3 NNW 15 24 1005.7 - 0.0 - Cloudy 10 - - - -
25/07:33pm 12.3 NW 6 15 1005.7 - 0.0 - Partly cloudy 9 - - - -
25/07:30pm 11.6 WNW 5 11 1005.8 - 0.0 - Partly cloudy 10 - - - -
25/07:00pm 10.5 W 4 5 1005.9 - 0.0 - Partly cloudy 10 - - - -
25/06:30pm 10.7 W 1 7 1005.9 - 0.0 - Partly cloudy 10 - - - -
25/06:00pm 11.1 SSE 2 4 1006.1 - 0.0 - Cloudy 10 - - - -
25/05:30pm 11.4 SE 6 7 1006.3 - 0.0 - Partly cloudy 10 - - - -
25/05:00pm 11.3 SE 5 7 1006.6 - 0.0 - Partly cloudy 10 - - - -
25/04:30pm 11.4 SE 5 7 1006.9 - 0.0 - Partly cloudy 10 - - - -
25/04:00pm 11.5 SE 7 9 1007.1 - 0.0 - Partly cloudy 10 - - - -
25/03:30pm 11.4 ESE 9 11 1007.5 - 0.0 - Partly cloudy 10 - - - -
25/03:07pm 11.4 ESE 8 11 1007.6 - 0.0 - Partly cloudy 10 - - - -
25/03:00pm 11.5 ESE 8 11 1007.7 - 0.0 - Cloudy 10 - - - -
25/02:30pm 11.1 ESE 7 10 1008.0 - 0.0 - Partly cloudy 10 - - - -
25/02:00pm 10.6 E 7 9 1008.4 - 0.0 - Cloudy 10 - - - -
25/01:30pm 10.5 ESE 9 13 1008.7 - 0.0 - Partly cloudy 10 - - - -
25/01:00pm 10.7 ESE 9 11 1009.3 - 0.0 - Partly cloudy 10 - - - -
25/12:30pm 10.7 E 7 9 1009.9 - 0.0 - Cloudy 10 - - - -
25/12:00pm 10.6 ESE 7 10 1010.2 - 0.0 - Cloudy 10 - - - -
25/11:58am 10.6 ESE 7 10 1010.3 - 0.0 - Partly cloudy 10 - - - -
25/11:30am 10.1 E 6 8 1011.0 - 0.0 - Partly cloudy 10 - - - -
25/11:00am 9.5 ESE 1 4 1011.5 - 0.0 - Partly cloudy 10 - - - -
25/10:30am 7.9 WSW 2 4 1012.2 - 0.0 - Partly cloudy 10 - - - -
25/10:00am 6.7 W 6 7 1012.7 - 0.0 - Partly cloudy 10 - - - -
25/09:30am 5.8 WNW 5 7 1012.8 - 0.0 - Partly cloudy 10 - - - -
25/09:00am 5.1 WNW 5 7 1013.1 - 0.0 - Cloudy 10 - - - -
25/08:30am 4.5 W 5 7 1013.4 - 0.0 - Partly cloudy 10 - - - -
25/08:00am 4.1 WNW 6 9 1013.8 - 0.0 - Partly cloudy 10 - - - -
25/07:30am 3.5 WNW 3 6 1013.5 - 0.0 - Partly cloudy 10 - - - -
25/07:00am 3.4 WNW 6 8 1013.8 - 0.0 - Cloudy 10 - - - -
25/06:30am 2.2 WNW 6 7 1013.7 - 0.0 - Partly cloudy 10 - - - -
25/06:00am 1.8 WNW 5 7 1013.6 - 0.0 - Mostly clear 10 - - - -
25/05:30am 1.5 W 3 8 1013.9 - 0.0 - Partly cloudy 10 - - - -
25/05:00am 1.3 WSW 5 7 1014.2 - 0.0 - Partly cloudy 10 - - - -
25/04:30am 1.5 W 6 7 1014.7 - 0.0 - - 10 - - - -
25/04:00am 1.2 WNW 7 9 1014.8 - 0.0 - - 10 - - - -
25/03:30am 1.5 NW 4 5 1014.9 - 0.0 - - 10 - - - -
25/03:00am 1.8 W 5 7 1015.3 - 0.0 - - 10 - - - -
25/02:30am 0.8 W 6 7 1015.2 - 0.0 - - 10 - - - -
25/02:00am 1.7 NW 4 5 1014.8 - 0.0 - - 10 - - - -
25/01:30am 0.9 W 6 7 1015.1 - 0.0 - - 10 - - - -
25/01:11am 1.3 WSW 6 7 1015.2 - 0.0 - - 10 - - - -
25/01:00am 1.7 WSW 3 5 1015.3 - 0.0 - - 5 - - - -
25/12:58am 1.7 SW 3 5 1015.4 - 0.0 - - 5 - - - -
25/12:30am 2.5 W 4 6 1016.0 - 0.0 - - 10 - - - -
25/12:00am 2.1 WSW 5 7 1016.2 - 0.0 - - 9 - - - -
 
Date/Time
EST
Temp

°C
Wind Pressure Rain
since 9am
mm
Weather Cloud Vis
km
Sea
Height
m
Swell
Dir
 
Speed
knots
Gust
knots
hPa Trend Height
m
Period
s
Dir
24/11:30pm 2.6 SSW 3 5 1016.3 - 0.0 - - 10 - - - -
24/11:00pm 1.3 WSW 6 7 1016.4 - 0.0 - - 8 - - - -
24/10:30pm 3.3 CALM 0 3 1016.2 - 0.0 - - 10 - - - -
24/10:00pm 2.6 SW 5 7 1016.5 - 0.0 - - 10 - - - -
24/09:30pm 3.2 SSW 1 5 1016.8 - 0.0 - - 10 - - - -
24/09:00pm 3.6 W 6 6 1017.2 - 0.0 - - 10 - - - -
24/08:30pm 3.7 W 8 8 1017.3 - 0.0 - - 10 - - - -
24/08:00pm 3.8 WNW 5 6 1017.1 - 0.0 - - 10 - - - -
24/07:30pm 4.4 W 8 9 1017.2 - 0.0 - - 10 - - - -
24/07:00pm 4.9 W 4 7 1017.1 - 0.0 - - 10 - - - -
24/06:30pm 5.3 WSW 6 7 1016.8 - 0.0 - - 10 - - - -
24/06:00pm 8.7 NW 2 4 1016.6 - 0.0 - - 10 - - - -
24/05:30pm 9.8 NW 6 7 1016.4 - 0.0 - - 10 - - - -
24/05:00pm 9.6 W 6 8 1016.0 - 0.0 - - 10 - - - -
24/04:30pm 11.5 WSW 11 17 1015.8 - 0.0 - - 10 - - - -
24/04:00pm 12.4 WSW 15 21 1015.8 - 0.0 - - 10 - - - -
24/03:30pm 12.8 SW 11 15 1015.7 - 0.0 - Partly cloudy 10 - - - -
24/03:00pm 12.6 WSW 10 14 1015.5 - 0.0 - Partly cloudy 10 - - - -
24/02:30pm 14.1 WSW 10 15 1015.1 - 0.0 - Partly cloudy 10 - - - -
24/02:00pm 12.9 SW 11 15 1015.0 - 0.0 - Partly cloudy 10 - - - -
24/01:30pm 13.1 WSW 9 13 1015.2 - 0.0 - Partly cloudy 10 - - - -
24/01:00pm 14.0 WSW 10 16 1014.9 - 0.0 - Partly cloudy 10 - - - -
24/12:30pm 13.1 WSW 15 29 1015.3 - 0.0 - Partly cloudy 10 - - - -
24/12:25pm 13.3 SW 16 29 1015.2 - 0.0 - Partly cloudy 10 - - - -
24/12:00pm 13.3 WSW 16 23 1015.5 - 0.0 - Mostly clear 10 - - - -
24/11:42am 12.8 WSW 15 25 1015.6 - 0.0 - Partly cloudy 10 - - - -
24/11:30am 13.2 WSW 13 19 1015.7 - 0.0 - Partly cloudy 10 - - - -
24/11:00am 12.7 WSW 8 12 1016.0 - 0.0 - Partly cloudy 10 - - - -
24/10:30am 12.3 SW 6 10 1016.1 - 0.0 - - 10 - - - -
24/10:00am 11.6 W 7 12 1016.2 - 0.0 - Partly cloudy 10 - - - -
24/09:30am 10.6 NW 7 9 1016.0 - 0.0 - - 10 - - - -
24/09:00am 9.6 WNW 9 11 1016.1 - 1.6 - - 10 - - - -
24/08:30am 8.8 NW 8 10 1015.5 - 1.6 - - 10 - - - -
24/08:00am 7.8 NW 7 9 1015.3 - 1.6 - - 10 - - - -
24/07:30am 7.1 NW 8 10 1015.0 - 1.6 - - 10 - - - -
24/07:00am 7.6 NNW 7 10 1014.5 - 1.6 - - 10 - - - -
24/06:30am 6.0 N 5 6 1014.3 - 1.6 - - 10 - - - -
24/06:00am 6.2 N 4 6 1014.1 - 1.6 - Mostly clear 10 - - - -
24/05:30am 6.4 NNE 4 6 1013.8 - 1.6 - - 10 - - - -
24/05:00am 5.4 NNE 4 6 1013.5 - 1.6 - - 10 - - - -
24/04:30am 4.5 SSE 4 5 1013.3 - 1.6 - - 10 - - - -
24/04:00am 5.7 WNW 6 7 1013.1 - 1.4 - - 10 - - - -
24/03:30am 5.0 W 6 8 1013.3 - 1.4 - - 10 - - - -
24/03:00am 6.2 W 8 10 1013.2 - 1.4 - Mostly clear 10 - - - -
24/02:30am 6.3 W 9 11 1013.5 - 1.4 - Partly cloudy 10 - - - -

Other Formats:

Comma delimited format used in spreadsheet applications
http://www.bom.gov.au/fwo/IDT60701/IDT60701.95957.axf

JavaScript Object Notation format (JSON) in row-major order
http://www.bom.gov.au/fwo/IDT60701/IDT60701.95957.json